Time;durP1;ratioP1;P1;durP2;ratioP2;P2;SDS_P1;SDS_P2;PMS_P1;PMS_P2;Temp;Humidity;BMP_temperature;BMP_pressure;BME280_temperature;BME280_humidity;BME280_pressure;Samples;Min_cycle;Max_cycle;Signal;HPM_P1;HPM_P2
2023/09/02 00:01:48;;;;;;;10.18;9.27;;;;;;;21.00;71.68;95043.56;5051701;28;20725;-44
2023/09/02 00:04:17;;;;;;;10.63;9.73;;;;;;;20.89;71.87;95031.09;5051834;28;20526;-42
2023/09/02 00:06:44;;;;;;;10.30;9.32;;;;;;;20.83;72.08;95034.47;5052524;28;20195;-42
2023/09/02 00:09:10;;;;;;;10.02;9.07;;;;;;;20.84;72.08;95038.66;5051155;28;20195;-44
2023/09/02 00:11:37;;;;;;;9.40;8.60;;;;;;;20.80;72.16;95038.25;5051840;28;20575;-44
2023/09/02 00:14:04;;;;;;;10.57;9.32;;;;;;;20.58;72.53;95011.53;5051768;28;20191;-45
2023/09/02 00:16:31;;;;;;;9.35;8.55;;;;;;;20.73;72.65;95037.44;5051540;28;20681;-44
2023/09/02 00:18:57;;;;;;;10.15;9.25;;;;;;;20.68;72.86;95032.81;5051475;28;20531;-44
2023/09/02 00:21:26;;;;;;;9.63;8.82;;;;;;;20.66;73.13;95039.19;5051550;28;20616;-44
2023/09/02 00:24:02;;;;;;;9.60;8.80;;;;;;;20.57;73.17;95024.75;5051325;28;20183;-44
2023/09/02 00:26:28;;;;;;;10.43;9.48;;;;;;;20.53;73.53;95029.50;5051421;28;20194;-43
2023/09/02 00:28:55;;;;;;;10.43;9.52;;;;;;;20.53;73.78;95032.09;5051014;28;20219;-44
2023/09/02 00:31:22;;;;;;;10.15;9.25;;;;;;;20.50;73.67;95037.69;5051299;28;20282;-45
2023/09/02 00:33:49;;;;;;;11.07;9.68;;;;;;;20.45;74.05;95030.41;5051475;28;20214;-44
2023/09/02 00:36:15;;;;;;;10.30;9.30;;;;;;;20.42;74.18;95040.38;5051537;28;20183;-44
2023/09/02 00:38:43;;;;;;;9.75;8.88;;;;;;;20.41;74.25;95036.19;5051512;28;20187;-44
2023/09/02 00:41:13;;;;;;;9.95;9.05;;;;;;;20.39;74.55;95043.38;5051443;28;20218;-45
2023/09/02 00:43:40;;;;;;;10.45;9.45;;;;;;;20.36;74.86;95046.34;5050909;28;20280;-44
2023/09/02 00:46:09;;;;;;;10.63;9.63;;;;;;;20.33;74.96;95042.31;5050925;28;20659;-44
2023/09/02 00:48:36;;;;;;;10.15;9.25;;;;;;;20.30;75.21;95043.53;5051494;28;20184;-44
2023/09/02 00:51:03;;;;;;;10.00;9.00;;;;;;;20.27;75.27;95045.69;5051017;28;20191;-44
2023/09/02 00:53:30;;;;;;;9.73;8.93;;;;;;;20.22;75.40;95045.47;5051131;28;20274;-43
2023/09/02 00:55:58;;;;;;;11.27;9.32;;;;;;;20.20;75.53;95039.63;5050815;28;20190;-44
2023/09/02 00:58:25;;;;;;;9.90;8.88;;;;;;;20.16;75.71;95046.19;5050852;28;20198;-45
2023/09/02 01:00:52;;;;;;;10.73;9.68;;;;;;;20.13;75.59;95042.19;5050488;28;20223;-44
2023/09/02 01:03:19;;;;;;;11.05;9.63;;;;;;;20.07;76.05;95032.53;5051072;28;20276;-42
2023/09/02 01:05:46;;;;;;;9.75;8.85;;;;;;;20.07;76.32;95036.94;5050811;28;20206;-44
2023/09/02 01:08:18;;;;;;;11.75;8.80;;;;;;;20.03;76.58;95037.34;5051236;28;20187;-45
2023/09/02 01:10:46;;;;;;;10.23;9.32;;;;;;;19.96;76.55;95027.88;5050442;28;20203;-52
2023/09/02 01:13:14;;;;;;;10.02;9.10;;;;;;;19.99;76.69;95030.91;5050772;28;20190;-42
2023/09/02 01:15:41;;;;;;;10.85;9.85;;;;;;;19.98;76.79;95029.28;5050764;28;20245;-44
2023/09/02 01:18:08;;;;;;;10.68;9.57;;;;;;;19.99;76.78;95035.28;5050771;28;20249;-42
2023/09/02 01:20:54;;;;;;;12.20;9.70;;;;;;;19.97;77.04;95039.88;5049293;28;20227;-46
2023/09/02 01:23:46;;;;;;;11.48;10.27;;;;;;;19.71;76.83;94999.72;5050261;28;20191;-44
2023/09/02 01:26:27;;;;;;;10.23;9.23;;;;;;;19.89;77.14;95043.38;5049970;28;20195;-41
2023/09/02 01:29:02;;;;;;;11.20;10.10;;;;;;;19.85;77.22;95043.94;5049986;28;20284;-42
2023/09/02 01:31:30;;;;;;;11.30;10.20;;;;;;;19.79;77.18;95048.09;5050121;28;20822;-43
2023/09/02 01:34:01;;;;;;;10.45;9.45;;;;;;;19.73;77.42;95041.03;5049837;28;20199;-46
2023/09/02 01:36:29;;;;;;;10.20;9.30;;;;;;;19.52;77.26;95013.28;5050394;28;20183;-42
2023/09/02 01:38:58;;;;;;;10.53;9.60;;;;;;;19.72;77.57;95042.81;5049700;28;20198;-42
2023/09/02 01:41:25;;;;;;;10.23;9.32;;;;;;;19.64;77.44;95029.97;5050012;28;20226;-42
2023/09/02 01:43:55;;;;;;;18.40;9.60;;;;;;;19.69;77.59;95042.38;5050196;28;20190;-43
2023/09/02 01:46:23;;;;;;;10.67;9.67;;;;;;;19.68;77.57;95051.16;5050048;28;20260;-42
2023/09/02 01:48:49;;;;;;;11.00;10.00;;;;;;;19.65;77.68;95043.78;5049824;28;20210;-44
2023/09/02 01:51:17;;;;;;;10.77;9.68;;;;;;;19.62;77.84;95044.13;5050053;28;20194;-44
2023/09/02 01:53:44;;;;;;;10.77;9.68;;;;;;;19.60;78.21;95046.06;5050196;28;20244;-44
2023/09/02 01:56:11;;;;;;;10.35;9.35;;;;;;;19.58;78.11;95041.06;5049669;28;20662;-42
2023/09/02 01:58:38;;;;;;;11.05;10.05;;;;;;;19.55;78.14;95049.22;5049987;28;20628;-45
2023/09/02 02:01:06;;;;;;;10.98;9.55;;;;;;;19.53;78.33;95049.41;5049612;28;20222;-45
2023/09/02 02:03:38;;;;;;;10.55;8.98;;;;;;;19.50;78.26;95056.75;5049449;28;20183;-44
2023/09/02 02:06:08;;;;;;;11.38;10.38;;;;;;;19.49;78.57;95055.94;5049554;28;20651;-44
2023/09/02 02:08:44;;;;;;;10.83;9.83;;;;;;;19.48;78.54;95056.94;5051171;28;20277;-45
2023/09/02 02:11:13;;;;;;;11.30;10.30;;;;;;;19.45;78.58;95053.91;5049798;28;20194;-45
2023/09/02 02:13:39;;;;;;;10.03;9.13;;;;;;;19.39;78.75;95047.66;5049694;28;20248;-43
2023/09/02 02:16:07;;;;;;;10.27;9.38;;;;;;;19.40;78.41;95054.47;5049338;28;20203;-44
2023/09/02 02:18:34;;;;;;;10.52;9.48;;;;;;;19.39;78.88;95058.06;5049720;28;20260;-44
2023/09/02 02:21:03;;;;;;;10.00;9.10;;;;;;;19.37;78.81;95054.81;5049681;28;20215;-44
2023/09/02 02:23:30;;;;;;;9.43;8.63;;;;;;;19.36;78.77;95055.81;5049268;28;20183;-45
2023/09/02 02:26:00;;;;;;;10.40;9.40;;;;;;;19.32;78.86;95048.56;5049056;28;20260;-44
2023/09/02 02:28:27;;;;;;;10.38;9.25;;;;;;;19.34;78.95;95051.78;5049184;28;20728;-45
2023/09/02 02:30:54;;;;;;;10.35;9.35;;;;;;;19.33;79.03;95057.97;5049109;28;20191;-44
2023/09/02 02:33:22;;;;;;;9.97;8.97;;;;;;;19.29;79.56;95060.09;5049480;28;20259;-43
2023/09/02 02:35:49;;;;;;;10.60;9.60;;;;;;;19.25;79.51;95051.88;5049303;28;20198;-42
2023/09/02 02:38:16;;;;;;;10.57;9.57;;;;;;;19.22;79.69;95054.88;5049364;28;20207;-45
2023/09/02 02:40:42;;;;;;;9.60;8.60;;;;;;;19.23;79.77;95051.28;5049125;28;20191;-50
2023/09/02 02:43:09;;;;;;;10.07;9.17;;;;;;;19.16;79.97;95042.59;5049098;28;20697;-44
2023/09/02 02:45:36;;;;;;;9.80;8.80;;;;;;;19.10;79.94;95034.78;5049370;28;20584;-44
2023/09/02 02:48:03;;;;;;;10.07;9.07;;;;;;;19.21;79.95;95053.25;5049364;28;20191;-44
2023/09/02 02:50:35;;;;;;;9.70;8.80;;;;;;;19.17;79.90;95046.84;5049147;28;20604;-44
2023/09/02 02:53:02;;;;;;;10.88;9.82;;;;;;;19.22;79.69;95054.88;5049266;28;20194;-44
2023/09/02 02:55:28;;;;;;;10.20;9.30;;;;;;;19.16;79.80;95044.41;5049356;28;20286;-43
2023/09/02 02:57:56;;;;;;;11.57;9.57;;;;;;;19.20;79.80;95054.22;5049177;28;20202;-44
2023/09/02 03:00:24;;;;;;;12.37;9.70;;;;;;;19.18;79.78;95060.59;5049004;28;20286;-45
2023/09/02 03:02:52;;;;;;;10.07;8.87;;;;;;;19.15;79.72;95053.16;5048780;28;20218;-44
2023/09/02 03:05:20;;;;;;;10.97;9.93;;;;;;;19.18;79.79;95058.00;5049052;28;20218;-44
2023/09/02 03:07:48;;;;;;;10.47;9.40;;;;;;;19.10;79.75;95051.13;5049073;28;20555;-45
2023/09/02 03:10:16;;;;;;;9.90;9.00;;;;;;;19.14;79.61;95065.34;5049099;28;20256;-44
2023/09/02 03:12:43;;;;;;;10.00;9.10;;;;;;;19.12;79.77;95062.09;5048585;28;20194;-44
2023/09/02 03:15:09;;;;;;;8.87;8.07;;;;;;;19.01;79.95;95062.59;5049125;28;20190;-45
2023/09/02 03:17:36;;;;;;;10.15;8.65;;;;;;;18.99;80.01;95060.16;5048618;28;20210;-42
2023/09/02 03:20:04;;;;;;;9.50;8.60;;;;;;;18.94;79.97;95069.47;5049083;28;20257;-43
2023/09/02 03:22:30;;;;;;;10.57;9.17;;;;;;;18.92;80.34;95066.25;5048965;28;20264;-44
2023/09/02 03:24:59;;;;;;;9.67;8.77;;;;;;;18.88;80.42;95063.22;5048807;28;20195;-44
2023/09/02 03:27:25;;;;;;;9.93;9.03;;;;;;;18.85;80.43;95063.56;5049031;28;20184;-45
2023/09/02 03:29:52;;;;;;;9.87;8.87;;;;;;;18.83;80.58;95056.97;5048419;28;20230;-44
2023/09/02 03:32:19;;;;;;;11.57;9.97;;;;;;;18.77;81.06;95056.69;5049053;28;20202;-43
2023/09/02 03:34:46;;;;;;;9.07;8.27;;;;;;;18.74;81.17;95054.47;5048961;28;20245;-43
2023/09/02 03:37:12;;;;;;;10.43;8.57;;;;;;;18.75;81.12;95058.66;5049102;28;20195;-44
2023/09/02 03:39:39;;;;;;;9.73;8.80;;;;;;;18.71;81.52;95061.78;5048426;28;20729;-45
2023/09/02 03:42:07;;;;;;;11.90;10.53;;;;;;;18.73;81.47;95065.78;5048595;28;20214;-45
2023/09/02 03:44:34;;;;;;;12.83;9.33;;;;;;;18.70;81.66;95060.19;5050757;28;20591;-46
2023/09/02 03:47:01;;;;;;;10.67;9.67;;;;;;;18.69;81.89;95061.13;5052181;28;20642;-45
2023/09/02 03:49:28;;;;;;;10.77;9.00;;;;;;;18.67;81.88;95061.31;5052296;28;20191;-45
2023/09/02 03:51:54;;;;;;;12.30;9.93;;;;;;;18.73;82.00;95072.75;5052181;28;20620;-44
2023/09/02 03:54:21;;;;;;;10.83;9.70;;;;;;;18.70;82.07;95079.13;5051949;28;20214;-45
2023/09/02 03:56:48;;;;;;;9.77;8.73;;;;;;;18.74;81.91;95080.38;5051762;28;20677;-47
2023/09/02 03:59:16;;;;;;;14.40;10.03;;;;;;;18.74;81.68;95077.00;5052029;28;20257;-42
2023/09/02 04:01:43;;;;;;;10.83;9.73;;;;;;;18.74;81.60;95075.19;5052004;28;20214;-44
2023/09/02 04:04:10;;;;;;;10.73;9.43;;;;;;;18.76;81.41;95075.00;5053056;28;20184;-45
2023/09/02 04:06:37;;;;;;;12.40;8.57;;;;;;;18.75;81.32;95074.22;5051872;28;20191;-45
2023/09/02 04:09:06;;;;;;;10.33;8.93;;;;;;;18.75;81.28;95083.78;5052061;28;20195;-45
2023/09/02 04:11:32;;;;;;;12.80;8.93;;;;;;;18.72;81.49;95081.53;5051630;28;20718;-43
2023/09/02 04:13:59;;;;;;;12.57;9.97;;;;;;;18.70;81.63;95083.50;5052268;28;20289;-45
2023/09/02 04:16:27;;;;;;;9.60;8.70;;;;;;;18.70;81.69;95081.72;5051305;28;20190;-43
2023/09/02 04:18:54;;;;;;;10.07;8.93;;;;;;;18.75;81.33;95086.38;5051729;28;20198;-44
2023/09/02 04:21:21;;;;;;;10.60;8.63;;;;;;;18.75;81.30;95076.81;5051323;28;20202;-43
2023/09/02 04:23:48;;;;;;;13.60;8.93;;;;;;;18.82;81.25;95081.25;5051952;28;20183;-44
2023/09/02 04:26:15;;;;;;;12.53;9.60;;;;;;;18.88;81.02;95080.56;5051643;28;20209;-43
2023/09/02 04:28:42;;;;;;;9.63;8.73;;;;;;;18.90;80.86;95083.75;5051373;28;20214;-45
2023/09/02 04:31:08;;;;;;;10.17;9.23;;;;;;;18.96;80.61;95089.03;5051906;28;20190;-45
2023/09/02 04:33:36;;;;;;;12.27;9.20;;;;;;;18.93;80.41;95093.78;5051131;28;20183;-44
2023/09/02 04:36:03;;;;;;;13.90;9.80;;;;;;;18.88;80.48;95088.34;5051514;28;20191;-45
2023/09/02 04:38:32;;;;;;;9.47;8.50;;;;;;;18.80;80.48;95074.47;5051335;28;20186;-44
2023/09/02 04:41:03;;;;;;;10.63;9.50;;;;;;;18.88;80.59;95096.91;5051018;28;20206;-44
2023/09/02 04:43:30;;;;;;;9.50;8.70;;;;;;;18.90;80.53;95094.13;5050964;28;20223;-43
2023/09/02 04:46:01;;;;;;;13.83;9.73;;;;;;;18.94;80.39;95092.78;5051236;28;20286;-44
2023/09/02 04:48:28;;;;;;;10.47;8.53;;;;;;;18.97;80.48;95095.03;5051211;28;20183;-44
2023/09/02 04:50:58;;;;;;;10.33;9.10;;;;;;;19.00;80.23;95095.47;5051134;28;20195;-45
2023/09/02 04:53:25;;;;;;;10.30;9.23;;;;;;;19.03;80.08;95097.69;5051013;28;20187;-44
2023/09/02 04:55:52;;;;;;;10.23;8.77;;;;;;;18.97;79.85;95080.28;5051042;28;20199;-45
2023/09/02 04:58:20;;;;;;;13.40;9.00;;;;;;;19.21;79.56;95101.69;5051140;28;20587;-44
2023/09/02 05:00:47;;;;;;;16.40;9.03;;;;;;;19.21;79.21;95079.19;5051381;28;20229;-44
2023/09/02 05:03:14;;;;;;;11.40;9.70;;;;;;;19.42;78.84;95096.56;5050768;28;20211;-45
2023/09/02 05:05:41;;;;;;;12.50;10.43;;;;;;;19.54;78.47;95102.09;5050944;28;20187;-44
2023/09/02 05:08:10;;;;;;;10.50;9.50;;;;;;;19.64;78.15;95094.03;5050585;28;20217;-44
2023/09/02 05:10:37;;;;;;;11.67;10.47;;;;;;;19.77;77.62;95102.78;5050843;28;20198;-44
2023/09/02 05:13:04;;;;;;;13.57;10.70;;;;;;;19.86;77.35;95100.06;5051083;28;20278;-43
2023/09/02 05:15:30;;;;;;;13.50;11.18;;;;;;;20.05;76.59;95109.84;5050722;28;20187;-44
2023/09/02 05:17:58;;;;;;;17.23;11.95;;;;;;;20.27;76.00;95111.44;5050768;28;20694;-44
2023/09/02 05:20:25;;;;;;;19.42;10.50;;;;;;;20.39;75.13;95092.75;5050590;28;20191;-42
2023/09/02 05:22:52;;;;;;;12.60;11.27;;;;;;;20.79;74.37;95119.84;5050645;28;20226;-44
2023/09/02 05:25:20;;;;;;;13.23;11.93;;;;;;;21.12;72.98;95114.03;5050611;28;20191;-44
2023/09/02 05:27:48;;;;;;;11.02;9.98;;;;;;;21.34;71.96;95117.38;5050749;28;20195;-44
2023/09/02 05:30:15;;;;;;;13.93;11.73;;;;;;;21.66;70.39;95118.47;5050258;28;20725;-45
2023/09/02 05:32:44;;;;;;;12.55;11.35;;;;;;;21.84;69.96;95112.72;5050336;28;20472;-43
2023/09/02 05:35:11;;;;;;;13.75;12.13;;;;;;;22.02;69.00;95111.16;5050512;28;20179;-46
2023/09/02 05:37:38;;;;;;;16.55;11.93;;;;;;;22.20;68.51;95113.22;5050683;28;20179;-47
2023/09/02 05:40:05;;;;;;;12.23;11.13;;;;;;;22.20;67.49;95104.59;5050169;28;20202;-43
2023/09/02 05:42:34;;;;;;;12.32;11.18;;;;;;;22.26;67.22;95111.59;5050026;28;20680;-45
2023/09/02 05:45:03;;;;;;;11.93;9.60;;;;;;;22.28;67.34;95105.22;5050072;28;20557;-46
2023/09/02 05:47:30;;;;;;;10.20;9.18;;;;;;;22.47;66.24;95114.03;5050515;28;20187;-46
2023/09/02 05:49:57;;;;;;;10.35;9.35;;;;;;;22.67;65.78;95121.84;5050024;28;20260;-46
2023/09/02 05:52:24;;;;;;;10.60;9.65;;;;;;;22.92;64.58;95113.38;5050114;28;20194;-46
2023/09/02 05:54:51;;;;;;;10.75;9.75;;;;;;;22.94;63.90;95104.38;5049940;28;20248;-45
2023/09/02 05:57:17;;;;;;;10.73;9.63;;;;;;;23.21;62.91;95120.75;5050658;28;20195;-47
2023/09/02 05:59:46;;;;;;;9.93;9.02;;;;;;;23.33;62.42;95117.50;5051057;28;20198;-44
2023/09/02 06:02:12;;;;;;;10.23;9.25;;;;;;;23.50;61.99;95124.66;5049996;28;20214;-43
2023/09/02 06:04:39;;;;;;;10.40;9.40;;;;;;;23.73;60.89;95128.63;5049890;28;20247;-43
2023/09/02 06:07:06;;;;;;;9.10;8.23;;;;;;;23.92;60.06;95132.13;5049118;28;20191;-44
2023/09/02 06:09:33;;;;;;;9.68;8.77;;;;;;;24.08;59.48;95125.59;5049671;28;20289;-45
2023/09/02 06:11:59;;;;;;;8.43;7.68;;;;;;;24.35;58.66;95129.63;5049328;28;20625;-46
2023/09/02 06:14:26;;;;;;;11.55;8.75;;;;;;;24.55;57.94;95132.13;5049567;28;20554;-45
2023/09/02 06:16:54;;;;;;;11.45;8.77;;;;;;;24.61;57.67;95128.69;5049684;28;20261;-44
2023/09/02 06:19:21;;;;;;;9.35;7.47;;;;;;;24.89;57.59;95137.88;5049747;28;20179;-45
2023/09/02 06:21:48;;;;;;;9.43;8.40;;;;;;;24.89;56.59;95135.28;5049580;28;20282;-45
2023/09/02 06:24:14;;;;;;;9.32;8.35;;;;;;;24.67;56.74;95135.66;5049926;28;20194;-44
2023/09/02 06:26:41;;;;;;;10.63;9.55;;;;;;;24.11;57.41;95084.19;5049596;28;20278;-43
2023/09/02 06:29:08;;;;;;;9.35;8.50;;;;;;;24.43;57.85;95139.84;5049546;28;20272;-47
2023/09/02 06:31:35;;;;;;;9.52;8.63;;;;;;;24.45;57.96;95116.13;5049349;28;20198;-44
2023/09/02 06:34:03;;;;;;;10.77;8.75;;;;;;;24.82;56.72;95129.28;5049606;28;20248;-46
2023/09/02 06:36:30;;;;;;;9.73;8.82;;;;;;;24.54;56.59;95075.63;5049397;28;20187;-45
2023/09/02 06:38:56;;;;;;;10.95;9.90;;;;;;;24.88;56.33;95131.84;5049280;28;20202;-44
2023/09/02 06:41:23;;;;;;;10.02;9.00;;;;;;;24.91;56.21;95130.59;5049614;28;20198;-44
2023/09/02 06:43:50;;;;;;;7.65;6.95;;;;;;;24.84;55.76;95122.03;5049156;28;20222;-44
2023/09/02 06:46:19;;;;;;;8.57;7.65;;;;;;;24.79;55.80;95127.91;5049287;28;20194;-44
2023/09/02 06:48:46;;;;;;;8.25;7.55;;;;;;;24.93;55.60;95125.97;5049037;28;20195;-45
2023/09/02 06:51:15;;;;;;;8.40;7.60;;;;;;;25.13;55.10;95129.22;5049233;28;20689;-44
2023/09/02 06:53:42;;;;;;;12.85;8.20;;;;;;;25.28;54.77;95129.66;5049215;28;20183;-43
2023/09/02 06:56:11;;;;;;;8.60;7.80;;;;;;;25.48;53.99;95123.41;5049654;28;20194;-45
2023/09/02 06:58:39;;;;;;;9.07;8.20;;;;;;;25.79;53.20;95132.13;5049341;28;20187;-42
2023/09/02 07:01:06;;;;;;;12.32;7.57;;;;;;;26.10;52.77;95134.50;5049431;28;20199;-45
2023/09/02 07:03:33;;;;;;;8.15;7.38;;;;;;;26.33;52.23;95140.81;5049091;28;20217;-44
2023/09/02 07:06:06;;;;;;;8.43;7.63;;;;;;;26.47;51.25;95129.94;5049068;28;20210;-46
2023/09/02 07:08:34;;;;;;;8.40;7.18;;;;;;;26.72;50.66;95142.06;5048984;28;20194;-44
2023/09/02 07:11:01;;;;;;;7.82;7.05;;;;;;;26.87;49.71;95139.00;5049429;28;20210;-44
2023/09/02 07:13:28;;;;;;;8.18;7.47;;;;;;;26.91;50.03;95135.69;5049053;28;20187;-43
2023/09/02 07:16:04;;;;;;;10.43;7.60;;;;;;;26.77;49.82;95108.88;5048756;28;20202;-45
2023/09/02 07:18:31;;;;;;;8.65;7.80;;;;;;;26.90;49.60;95144.59;5049684;28;20508;-51
2023/09/02 07:20:59;;;;;;;7.63;7.00;;;;;;;26.92;49.56;95136.47;5052877;28;20199;-45
2023/09/02 07:23:26;;;;;;;7.22;6.53;;;;;;;27.11;49.78;95142.44;5052912;28;20694;-44
2023/09/02 07:25:55;;;;;;;8.00;7.30;;;;;;;27.33;48.79;95135.56;5052621;28;20569;-46
2023/09/02 07:28:22;;;;;;;10.85;7.85;;;;;;;27.49;47.90;95137.44;5053184;28;20194;-45
2023/09/02 07:30:49;;;;;;;7.85;7.10;;;;;;;27.60;48.42;95130.59;5052319;28;20269;-45
2023/09/02 07:33:16;;;;;;;8.10;7.35;;;;;;;27.93;47.75;95119.38;5052745;28;20187;-47
2023/09/02 07:35:43;;;;;;;9.10;7.40;;;;;;;28.25;46.81;95138.13;5052364;28;20614;-44
2023/09/02 07:38:09;;;;;;;9.43;8.27;;;;;;;28.37;46.24;95145.16;5052960;28;20191;-45
2023/09/02 07:40:36;;;;;;;12.15;7.57;;;;;;;28.29;46.14;95138.44;5052211;28;20194;-45
2023/09/02 07:43:04;;;;;;;9.55;7.75;;;;;;;28.38;46.34;95128.34;5052490;28;20686;-45
2023/09/02 07:45:31;;;;;;;9.50;7.82;;;;;;;28.60;45.55;95137.13;5052279;28;20249;-44
2023/09/02 07:47:58;;;;;;;8.60;7.60;;;;;;;28.39;45.92;95138.63;5052413;28;20205;-44
2023/09/02 07:50:25;;;;;;;12.95;8.10;;;;;;;28.27;46.66;95136.03;5052222;28;20663;-45
2023/09/02 07:52:51;;;;;;;8.85;8.02;;;;;;;28.30;46.38;95140.03;5052974;28;20199;-45
2023/09/02 07:55:18;;;;;;;9.38;8.52;;;;;;;28.22;46.85;95137.78;5053076;28;20197;-44
2023/09/02 07:57:45;;;;;;;11.27;7.93;;;;;;;28.14;46.66;95135.53;5052117;28;20198;-44
2023/09/02 08:00:13;;;;;;;9.55;8.25;;;;;;;28.20;46.59;95143.28;5052238;28;20574;-44
2023/09/02 08:02:40;;;;;;;8.98;7.93;;;;;;;28.12;46.35;95146.31;5051620;28;20264;-44
2023/09/02 08:05:08;;;;;;;9.75;8.27;;;;;;;28.13;46.75;95141.84;5051996;28;20191;-45
2023/09/02 08:07:35;;;;;;;10.82;7.55;;;;;;;28.40;46.30;95147.31;5051754;28;20572;-44
2023/09/02 08:10:02;;;;;;;8.05;7.28;;;;;;;28.73;45.63;95152.59;5052326;28;20582;-44
2023/09/02 08:12:29;;;;;;;7.85;6.75;;;;;;;29.06;45.13;95152.81;5051849;28;20191;-44
2023/09/02 08:14:55;;;;;;;7.55;6.85;;;;;;;29.22;44.50;95139.63;5052026;28;20199;-43
2023/09/02 08:17:23;;;;;;;7.70;7.00;;;;;;;29.54;44.13;95149.53;5051921;28;20187;-45
2023/09/02 08:19:50;;;;;;;10.27;7.97;;;;;;;29.64;43.31;95147.03;5051979;28;20199;-45
2023/09/02 08:22:18;;;;;;;7.55;6.93;;;;;;;29.79;43.16;95149.03;5051605;28;20570;-45
2023/09/02 08:24:45;;;;;;;8.57;7.32;;;;;;;29.83;43.13;95150.16;5051411;28;20226;-44
2023/09/02 08:27:12;;;;;;;7.65;6.95;;;;;;;29.80;43.33;95148.03;5052002;28;20195;-44
2023/09/02 08:29:38;;;;;;;8.48;7.53;;;;;;;29.84;42.99;95151.75;5051062;28;20223;-45
2023/09/02 08:32:05;;;;;;;8.10;7.30;;;;;;;29.71;42.95;95152.13;5051451;28;20183;-44
2023/09/02 08:34:33;;;;;;;8.30;7.30;;;;;;;29.65;43.14;95140.72;5051418;28;20198;-43
2023/09/02 08:37:00;;;;;;;8.20;7.32;;;;;;;29.58;43.14;95128.75;5051617;28;20674;-44
2023/09/02 08:39:27;;;;;;;10.90;6.88;;;;;;;29.66;42.97;95138.88;5051298;28;20195;-45
2023/09/02 08:41:54;;;;;;;9.05;7.55;;;;;;;29.52;43.28;95127.88;5051676;28;20195;-44
2023/09/02 08:44:23;;;;;;;9.25;7.25;;;;;;;29.53;43.65;95131.31;5051324;28;20229;-43
2023/09/02 08:46:53;;;;;;;8.98;6.82;;;;;;;29.60;43.42;95116.16;5051255;28;20214;-45
2023/09/02 08:49:21;;;;;;;8.32;7.53;;;;;;;29.84;42.92;95135.94;5051292;28;20213;-42
2023/09/02 08:51:49;;;;;;;7.22;6.63;;;;;;;29.66;42.94;95129.16;5051894;28;20187;-45
2023/09/02 08:54:17;;;;;;;11.25;7.97;;;;;;;29.43;43.44;95118.81;5051436;28;20209;-43
2023/09/02 08:56:46;;;;;;;8.32;6.57;;;;;;;29.49;43.30;95123.91;5051477;28;20187;-43
2023/09/02 08:59:14;;;;;;;11.60;7.00;;;;;;;29.45;43.25;95124.66;5050908;28;20199;-43
2023/09/02 09:01:43;;;;;;;7.28;6.50;;;;;;;29.60;42.92;95129.31;5051385;28;20274;-45
2023/09/02 09:04:10;;;;;;;7.22;6.53;;;;;;;29.79;42.60;95119.25;5050629;28;20642;-45
2023/09/02 09:06:38;;;;;;;8.02;6.68;;;;;;;29.90;42.35;95113.84;5050823;28;20697;-45
2023/09/02 09:09:08;;;;;;;12.20;6.07;;;;;;;29.89;42.04;95114.09;5050501;28;20202;-44
2023/09/02 09:11:37;;;;;;;6.78;6.03;;;;;;;29.94;41.79;95120.22;5050660;28;20206;-43
2023/09/02 09:14:05;;;;;;;7.05;5.55;;;;;;;29.85;42.59;95124.34;5050113;28;20341;-44
2023/09/02 09:16:37;;;;;;;5.82;5.30;;;;;;;29.95;42.31;95115.72;5050921;28;20194;-44
2023/09/02 09:19:04;;;;;;;6.38;5.82;;;;;;;30.06;41.91;95116.63;5050354;28;20207;-44
2023/09/02 09:21:31;;;;;;;7.95;5.88;;;;;;;30.14;41.98;95109.09;5050745;28;20191;-44
2023/09/02 09:23:58;;;;;;;7.70;5.93;;;;;;;30.24;41.83;95114.47;5050606;28;20223;-45
2023/09/02 09:26:27;;;;;;;7.72;4.82;;;;;;;29.91;41.53;95053.97;5050326;28;20199;-43
2023/09/02 09:28:56;;;;;;;8.30;6.20;;;;;;;30.31;41.51;95124.00;5050322;28;20222;-44
2023/09/02 09:31:23;;;;;;;6.40;5.18;;;;;;;30.26;41.32;95108.91;5050640;28;20222;-44
2023/09/02 09:33:53;;;;;;;7.43;5.85;;;;;;;30.26;41.38;95116.84;5050781;28;20206;-45
2023/09/02 09:36:21;;;;;;;5.93;5.32;;;;;;;30.22;41.31;95113.09;5050704;28;20256;-44
2023/09/02 09:38:49;;;;;;;6.38;4.97;;;;;;;30.11;41.54;95091.09;5050274;28;20190;-44
2023/09/02 09:41:16;;;;;;;8.25;5.97;;;;;;;30.22;41.17;95111.28;5049167;28;20198;-44
2023/09/02 09:43:44;;;;;;;5.75;5.22;;;;;;;30.20;41.20;95104.66;5050357;28;20214;-44
2023/09/02 09:46:15;;;;;;;6.90;5.60;;;;;;;30.13;41.35;95091.63;5049742;28;20191;-45
2023/09/02 09:48:49;;;;;;;5.82;5.32;;;;;;;30.14;41.45;95097.69;5050054;28;20191;-44
2023/09/02 09:51:22;;;;;;;6.25;5.30;;;;;;;30.15;41.24;95089.56;5050162;28;20218;-43
2023/09/02 09:53:49;;;;;;;8.05;5.60;;;;;;;30.14;41.28;95095.91;5049767;28;20226;-44
2023/09/02 09:56:16;;;;;;;5.65;5.03;;;;;;;30.11;41.28;95096.38;5049640;28;20191;-45
2023/09/02 09:58:45;;;;;;;5.65;5.15;;;;;;;30.12;41.18;95100.59;5050169;28;20229;-43
2023/09/02 10:01:21;;;;;;;7.35;5.43;;;;;;;30.05;41.50;95094.72;5049846;28;20202;-45
2023/09/02 10:03:48;;;;;;;5.75;5.25;;;;;;;30.04;41.39;95087.84;5049835;28;20214;-44
2023/09/02 10:06:15;;;;;;;6.53;5.30;;;;;;;30.11;41.23;95093.72;5049586;28;20191;-46
2023/09/02 10:08:53;;;;;;;6.15;5.28;;;;;;;30.18;41.17;95089.09;5049785;28;20214;-44
2023/09/02 10:11:23;;;;;;;6.38;5.00;;;;;;;30.20;41.28;95079.06;5049292;28;20191;-44
2023/09/02 10:13:53;;;;;;;6.10;5.45;;;;;;;30.19;41.12;95074.03;5049833;28;20381;-45
2023/09/02 10:16:22;;;;;;;7.03;5.28;;;;;;;30.18;41.29;95080.34;5049544;28;20195;-45
2023/09/02 10:18:49;;;;;;;5.53;5.13;;;;;;;30.11;41.20;95085.81;5049959;28;20212;-44
2023/09/02 10:21:17;;;;;;;6.78;6.07;;;;;;;29.95;40.86;95076.94;5049271;28;20186;-44
2023/09/02 10:23:50;;;;;;;7.25;5.35;;;;;;;29.95;40.97;95076.94;5049787;28;20222;-44
2023/09/02 10:26:24;;;;;;;5.00;4.55;;;;;;;29.94;41.17;95066.66;5049640;28;20336;-46
2023/09/02 10:28:58;;;;;;;5.57;4.95;;;;;;;29.99;40.36;95064.84;5049532;28;20283;-45
2023/09/02 10:31:32;;;;;;;5.53;4.47;;;;;;;29.93;40.43;95067.72;5049398;28;20191;-45
2023/09/02 10:34:05;;;;;;;6.60;5.53;;;;;;;29.85;40.13;95060.25;5049658;28;20241;-43
2023/09/02 10:36:34;;;;;;;7.47;5.25;;;;;;;29.79;40.84;95061.22;5049291;28;20195;-43
2023/09/02 10:39:04;;;;;;;5.88;5.00;;;;;;;29.68;40.95;95061.13;5049691;28;20194;-46
2023/09/02 10:41:31;;;;;;;7.13;5.20;;;;;;;29.48;41.10;95055.63;5049548;28;20199;-45
2023/09/02 10:44:00;;;;;;;6.80;5.38;;;;;;;29.34;41.18;95054.41;5049534;28;20268;-45
2023/09/02 10:46:28;;;;;;;4.72;4.32;;;;;;;29.20;41.15;95059.25;5049232;28;20195;-44
2023/09/02 10:48:55;;;;;;;5.53;5.00;;;;;;;29.22;41.10;95059.78;5049599;28;20187;-45
2023/09/02 10:51:23;;;;;;;5.93;4.60;;;;;;;29.30;40.93;95059.38;5049367;28;20256;-45
2023/09/02 10:54:02;;;;;;;5.20;4.13;;;;;;;29.49;39.97;95060.66;5052567;28;20234;-45
2023/09/02 10:56:31;;;;;;;6.82;4.57;;;;;;;29.54;40.38;95062.56;5053195;28;20732;-45
2023/09/02 10:59:00;;;;;;;5.28;4.88;;;;;;;29.61;39.89;95068.44;5053091;28;20183;-45
2023/09/02 11:01:29;;;;;;;5.30;4.80;;;;;;;29.66;38.78;95059.78;5053092;28;20186;-45
2023/09/02 11:03:56;;;;;;;4.90;4.45;;;;;;;29.60;38.34;95063.44;5053418;28;20610;-44
2023/09/02 11:06:23;;;;;;;17.67;6.00;;;;;;;29.55;39.15;95047.53;5053180;28;20283;-45
2023/09/02 11:08:51;;;;;;;7.13;5.10;;;;;;;29.65;39.14;95050.28;5053508;28;20191;-45
2023/09/02 11:11:18;;;;;;;5.55;5.05;;;;;;;29.88;38.88;95059.72;5052885;28;20225;-45
2023/09/02 11:14:22;;;;;;;8.45;5.63;;;;;;;29.97;37.82;95058.25;5052980;28;20206;-45
2023/09/02 11:17:26;;;;;;;4.53;3.97;;;;;;;30.08;37.88;95053.84;4952431;29;20201;-45
2023/09/02 11:20:00;;;;;;;5.88;4.13;;;;;;;30.14;38.07;95047.56;4952401;28;20225;-43
2023/09/02 11:22:55;;;;;;;4.53;4.22;;;;;;;30.28;37.46;95051.41;4952841;29;20597;-45
2023/09/02 11:25:41;;;;;;;4.60;4.25;;;;;;;30.30;37.18;95044.03;4952339;28;20230;-46
2023/09/02 11:28:09;;;;;;;5.20;4.78;;;;;;;30.18;37.25;95036.31;4952357;29;20203;-45
2023/09/02 11:30:39;;;;;;;4.60;4.15;;;;;;;30.22;37.06;95047.13;4952352;29;20233;-44
2023/09/02 11:33:07;;;;;;;7.93;4.50;;;;;;;30.21;37.21;95035.78;4952351;29;20648;-45
2023/09/02 11:35:36;;;;;;;6.45;5.85;;;;;;;30.26;37.29;95034.25;4953260;29;20246;-44